createdAt,value
2022-12-31T00:00:47.644Z,100.00
2022-12-31T00:03:15.599Z,100.00
2022-12-31T00:05:42.752Z,100.00
2022-12-31T00:08:10.289Z,100.00
2022-12-31T00:10:41.613Z,100.00
2022-12-31T00:13:10.954Z,100.00
2022-12-31T00:15:39.291Z,100.00
2022-12-31T00:18:07.140Z,100.00
2022-12-31T00:20:34.730Z,100.00
2022-12-31T00:23:01.878Z,100.00
2022-12-31T00:25:28.792Z,100.00
2022-12-31T00:27:56.682Z,100.00
2022-12-31T00:30:23.574Z,100.00
2022-12-31T00:32:50.338Z,100.00
2022-12-31T00:35:17.472Z,100.00
2022-12-31T00:37:44.261Z,100.00
2022-12-31T00:40:11.759Z,100.00
2022-12-31T00:42:38.744Z,100.00
2022-12-31T00:45:06.297Z,100.00
2022-12-31T00:47:33.220Z,100.00
2022-12-31T00:50:00.209Z,100.00
2022-12-31T00:52:27.005Z,100.00
2022-12-31T00:54:53.857Z,100.00
2022-12-31T00:57:20.914Z,100.00
2022-12-31T00:59:47.733Z,100.00
2022-12-31T01:02:15.132Z,100.00
2022-12-31T01:04:42.400Z,100.00
2022-12-31T01:07:09.400Z,100.00
2022-12-31T01:09:36.701Z,100.00
2022-12-31T01:12:03.841Z,100.00
2022-12-31T01:14:32.795Z,100.00
2022-12-31T01:16:59.925Z,100.00
2022-12-31T01:19:29.403Z,100.00
2022-12-31T01:21:57.549Z,100.00
2022-12-31T01:24:24.793Z,100.00
2022-12-31T01:26:51.923Z,100.00
2022-12-31T01:29:18.954Z,100.00
2022-12-31T01:31:46.004Z,100.00
2022-12-31T01:34:13.027Z,100.00
2022-12-31T01:36:40.092Z,100.00
2022-12-31T01:39:09.065Z,100.00
2022-12-31T01:41:44.610Z,100.00
2022-12-31T01:44:15.331Z,100.00
2022-12-31T01:46:44.467Z,100.00
2022-12-31T01:49:18.630Z,100.00
2022-12-31T01:51:49.781Z,100.00
2022-12-31T01:54:20.337Z,100.00
2022-12-31T01:56:49.975Z,100.00
2022-12-31T01:59:18.843Z,100.00
2022-12-31T02:01:48.530Z,100.00
2022-12-31T02:04:16.558Z,100.00
2022-12-31T02:06:52.035Z,100.00
2022-12-31T02:09:19.746Z,100.00
2022-12-31T02:11:46.631Z,100.00
2022-12-31T02:14:21.065Z,100.00
2022-12-31T02:17:06.861Z,100.00
2022-12-31T02:19:36.415Z,100.00
2022-12-31T02:22:26.543Z,100.00
2022-12-31T02:24:59.378Z,100.00
2022-12-31T02:27:45.509Z,100.00
2022-12-31T02:30:19.681Z,100.00
2022-12-31T02:32:58.926Z,100.00
2022-12-31T02:35:41.060Z,100.00
2022-12-31T02:38:33.460Z,100.00
2022-12-31T02:41:01.067Z,100.00
2022-12-31T02:43:28.689Z,100.00
2022-12-31T02:46:07.743Z,100.00
2022-12-31T02:48:37.969Z,100.00
2022-12-31T02:51:33.979Z,100.00
2022-12-31T02:54:08.161Z,100.00
2022-12-31T02:56:53.831Z,100.00
2022-12-31T02:59:50.829Z,100.00
2022-12-31T03:02:21.931Z,100.00
2022-12-31T03:04:53.315Z,100.00
2022-12-31T03:07:23.939Z,100.00
2022-12-31T03:09:51.304Z,100.00
2022-12-31T03:12:41.080Z,100.00
2022-12-31T03:15:20.294Z,100.00
2022-12-31T03:17:51.331Z,100.00
2022-12-31T03:20:37.605Z,100.00
2022-12-31T03:23:08.017Z,100.00
2022-12-31T03:25:41.713Z,100.00
2022-12-31T03:28:23.696Z,100.00
2022-12-31T03:30:53.840Z,100.00
2022-12-31T03:33:21.980Z,100.00
2022-12-31T03:35:50.008Z,100.00
2022-12-31T03:38:18.380Z,100.00
2022-12-31T03:40:48.462Z,100.00
2022-12-31T03:43:15.812Z,100.00
2022-12-31T03:45:42.750Z,100.00
2022-12-31T03:48:10.485Z,100.00
2022-12-31T03:50:37.296Z,100.00
2022-12-31T03:53:04.574Z,100.00
2022-12-31T03:55:31.783Z,100.00
2022-12-31T03:58:00.923Z,100.00
2022-12-31T04:00:28.330Z,100.00
2022-12-31T04:02:58.991Z,100.00
2022-12-31T04:05:25.867Z,100.00
2022-12-31T04:07:52.894Z,100.00
2022-12-31T04:10:20.681Z,100.00
2022-12-31T04:12:47.787Z,100.00
2022-12-31T04:15:21.792Z,100.00
2022-12-31T04:17:49.451Z,100.00
2022-12-31T04:20:16.824Z,100.00
2022-12-31T04:22:44.389Z,100.00
2022-12-31T04:25:11.764Z,100.00
2022-12-31T04:27:43.784Z,100.00
2022-12-31T04:30:12.756Z,100.00
2022-12-31T04:32:39.763Z,100.00
2022-12-31T04:35:07.314Z,100.00
2022-12-31T04:37:34.224Z,100.00
2022-12-31T04:40:05.870Z,100.00
2022-12-31T04:42:34.427Z,100.00
2022-12-31T04:45:01.576Z,100.00
2022-12-31T04:47:28.694Z,100.00
2022-12-31T04:49:55.659Z,100.00
2022-12-31T04:52:23.338Z,100.00
2022-12-31T04:54:50.353Z,100.00
2022-12-31T04:57:17.274Z,100.00
2022-12-31T04:59:44.504Z,100.00
2022-12-31T05:02:11.617Z,100.00
2022-12-31T05:04:38.671Z,100.00
2022-12-31T05:07:05.465Z,100.00
2022-12-31T05:09:32.534Z,100.00
2022-12-31T05:11:59.605Z,100.00
2022-12-31T05:14:26.742Z,100.00
2022-12-31T05:16:53.918Z,100.00
2022-12-31T05:19:21.112Z,100.00
2022-12-31T05:22:08.159Z,100.00
2022-12-31T05:24:35.306Z,100.00
2022-12-31T05:27:02.387Z,100.00
2022-12-31T05:29:29.360Z,100.00
2022-12-31T05:31:56.314Z,100.00
2022-12-31T05:34:23.161Z,100.00
2022-12-31T05:36:50.116Z,100.00
2022-12-31T05:39:17.197Z,100.00
2022-12-31T05:41:44.247Z,100.00
2022-12-31T05:44:11.561Z,100.00
2022-12-31T05:46:38.638Z,100.00
2022-12-31T05:49:05.641Z,100.00
2022-12-31T05:51:35.533Z,100.00
2022-12-31T05:54:34.318Z,100.00
2022-12-31T05:57:03.227Z,100.00
2022-12-31T05:59:31.332Z,100.00
2022-12-31T06:01:58.655Z,100.00
2022-12-31T06:04:25.667Z,100.00
2022-12-31T06:10:31.078Z,100.00
2022-12-31T06:12:58.178Z,100.00
2022-12-31T06:15:25.117Z,100.00
2022-12-31T06:17:59.152Z,100.00
2022-12-31T06:20:26.392Z,100.00
2022-12-31T06:22:53.473Z,100.00
2022-12-31T06:25:20.495Z,100.00
2022-12-31T06:27:47.522Z,100.00
2022-12-31T06:30:14.815Z,100.00
2022-12-31T06:32:42.259Z,100.00
2022-12-31T06:35:09.779Z,100.00
2022-12-31T06:37:36.805Z,100.00
2022-12-31T06:40:04.023Z,100.00
2022-12-31T06:42:32.173Z,100.00
2022-12-31T06:44:59.820Z,100.00
2022-12-31T06:47:26.944Z,100.00
2022-12-31T06:49:54.009Z,100.00
2022-12-31T06:52:21.638Z,100.00
2022-12-31T06:54:48.853Z,100.00
2022-12-31T06:57:16.282Z,100.00
2022-12-31T06:59:44.996Z,100.00
2022-12-31T07:02:33.177Z,100.00
2022-12-31T07:05:27.302Z,100.00
2022-12-31T07:08:35.561Z,100.00
2022-12-31T07:11:25.642Z,100.00
2022-12-31T07:14:22.811Z,100.00
2022-12-31T07:17:22.482Z,100.00
2022-12-31T07:20:14.969Z,100.00
2022-12-31T07:22:42.471Z,100.00
2022-12-31T07:25:19.620Z,100.00
2022-12-31T07:27:51.642Z,100.00
2022-12-31T07:30:45.666Z,100.00
2022-12-31T07:33:19.895Z,100.00
2022-12-31T07:36:03.853Z,100.00
2022-12-31T07:38:50.599Z,100.00
2022-12-31T07:41:34.840Z,100.00
2022-12-31T07:44:33.638Z,100.00
2022-12-31T07:47:03.618Z,100.00
2022-12-31T07:49:31.648Z,100.00
2022-12-31T07:51:59.377Z,100.00
2022-12-31T07:54:26.476Z,100.00
2022-12-31T07:56:54.043Z,100.00
2022-12-31T07:59:50.270Z,99.25
2022-12-31T08:02:25.351Z,97.74
2022-12-31T08:05:10.944Z,97.38
2022-12-31T08:07:40.711Z,96.67
2022-12-31T08:10:30.974Z,95.80
2022-12-31T08:13:12.071Z,95.23
2022-12-31T08:15:40.812Z,95.05
2022-12-31T08:18:08.560Z,94.26
2022-12-31T08:20:46.487Z,93.85
2022-12-31T08:23:32.768Z,93.48
2022-12-31T08:26:21.169Z,93.54
2022-12-31T08:29:29.508Z,93.60
2022-12-31T08:31:59.362Z,93.05
2022-12-31T08:34:52.985Z,92.88
2022-12-31T08:37:37.945Z,92.97
2022-12-31T08:40:51.646Z,93.07
2022-12-31T08:43:30.927Z,93.35
2022-12-31T08:45:59.362Z,93.43
2022-12-31T08:48:41.182Z,93.43
2022-12-31T08:51:26.065Z,93.85
2022-12-31T08:53:55.474Z,93.88
2022-12-31T08:56:48.826Z,93.60
2022-12-31T08:59:41.889Z,93.31
2022-12-31T09:02:48.258Z,92.91
2022-12-31T09:05:31.376Z,92.48
2022-12-31T09:08:40.208Z,92.09
2022-12-31T09:11:22.648Z,91.67
2022-12-31T09:13:56.421Z,91.34
2022-12-31T09:16:49.799Z,91.08
2022-12-31T09:19:16.815Z,90.42
2022-12-31T09:21:45.322Z,89.93
2022-12-31T09:24:14.126Z,89.43
2022-12-31T09:27:30.698Z,88.92
2022-12-31T09:30:04.802Z,88.42
2022-12-31T09:33:01.287Z,87.88
2022-12-31T09:35:47.223Z,87.44
2022-12-31T09:38:22.849Z,87.20
2022-12-31T09:41:08.322Z,86.89
2022-12-31T09:43:53.412Z,86.44
2022-12-31T09:46:50.271Z,86.21
2022-12-31T09:50:07.703Z,86.00
2022-12-31T09:52:47.612Z,85.70
2022-12-31T09:55:30.212Z,85.47
2022-12-31T09:58:18.650Z,84.95
2022-12-31T10:00:57.772Z,83.98
2022-12-31T10:04:06.611Z,83.63
2022-12-31T10:06:36.352Z,82.61
2022-12-31T10:09:30.273Z,81.79
2022-12-31T10:12:25.432Z,81.42
2022-12-31T10:15:20.592Z,80.38
2022-12-31T10:18:06.277Z,79.74
2022-12-31T10:20:48.449Z,79.18
2022-12-31T10:23:21.640Z,78.78
2022-12-31T10:26:04.724Z,78.00
2022-12-31T10:28:49.421Z,76.73
2022-12-31T10:31:37.495Z,75.54
2022-12-31T10:34:16.161Z,74.47
2022-12-31T10:36:52.109Z,73.77
2022-12-31T10:39:54.240Z,73.76
2022-12-31T10:42:59.183Z,73.28
2022-12-31T10:45:47.346Z,72.58
2022-12-31T10:48:31.640Z,72.34
2022-12-31T10:51:18.453Z,71.87
2022-12-31T10:54:04.032Z,71.73
2022-12-31T10:57:09.140Z,71.91
2022-12-31T11:00:04.086Z,71.60
2022-12-31T11:03:00.299Z,71.01
2022-12-31T11:05:53.347Z,70.38
2022-12-31T11:08:48.320Z,70.24
2022-12-31T11:11:30.563Z,70.11
2022-12-31T11:14:27.466Z,70.17
2022-12-31T11:17:37.790Z,69.28
2022-12-31T11:20:41.647Z,69.42
2022-12-31T11:23:36.341Z,69.16
2022-12-31T11:26:26.054Z,68.96
2022-12-31T11:29:18.172Z,68.32
2022-12-31T11:32:04.328Z,68.91
2022-12-31T11:35:10.838Z,68.90
2022-12-31T11:37:53.915Z,68.50
2022-12-31T11:41:07.409Z,68.65
2022-12-31T11:43:38.479Z,68.06
2022-12-31T11:46:25.570Z,68.08
2022-12-31T11:49:27.515Z,67.78
2022-12-31T11:52:25.477Z,67.05
2022-12-31T11:55:18.669Z,66.86
2022-12-31T11:57:51.099Z,66.58
2022-12-31T12:00:20.908Z,66.03
2022-12-31T12:02:54.079Z,65.85
2022-12-31T12:05:24.068Z,65.90
2022-12-31T12:07:52.483Z,66.05
2022-12-31T12:10:31.955Z,66.32
2022-12-31T12:13:17.342Z,66.30
2022-12-31T12:15:58.218Z,65.79
2022-12-31T12:18:29.040Z,66.13
2022-12-31T12:21:17.283Z,65.93
2022-12-31T12:24:23.161Z,65.84
2022-12-31T12:26:50.205Z,65.70
2022-12-31T12:29:21.456Z,65.76
2022-12-31T12:32:14.686Z,65.08
2022-12-31T12:34:49.133Z,64.54
2022-12-31T12:37:25.726Z,62.31
2022-12-31T12:40:04.538Z,59.58
2022-12-31T12:42:31.936Z,58.13
2022-12-31T12:45:15.042Z,57.91
2022-12-31T12:47:43.931Z,58.37
2022-12-31T12:50:17.267Z,57.93
2022-12-31T12:53:10.779Z,53.74
2022-12-31T12:55:38.060Z,51.09
2022-12-31T12:58:18.807Z,51.94
2022-12-31T13:00:51.487Z,50.63
2022-12-31T13:03:27.370Z,47.61
2022-12-31T13:06:22.290Z,47.89
2022-12-31T13:08:55.260Z,50.06
2022-12-31T13:11:46.732Z,51.60
2022-12-31T13:14:37.684Z,53.81
2022-12-31T13:17:30.269Z,55.51
2022-12-31T13:20:15.478Z,57.92
2022-12-31T13:22:52.354Z,58.68
2022-12-31T13:25:32.590Z,59.51
2022-12-31T13:28:09.381Z,60.35
2022-12-31T13:31:06.532Z,61.79
2022-12-31T13:33:42.234Z,62.53
2022-12-31T13:36:15.497Z,63.05
2022-12-31T13:38:54.874Z,63.56
2022-12-31T13:41:43.844Z,64.46
2022-12-31T13:44:13.613Z,64.86
2022-12-31T13:46:49.418Z,65.28
2022-12-31T13:49:22.346Z,66.21
2022-12-31T13:52:01.736Z,66.68
2022-12-31T13:54:39.022Z,67.30
2022-12-31T13:57:17.060Z,68.00
2022-12-31T13:59:52.940Z,68.39
2022-12-31T14:03:03.270Z,68.63
2022-12-31T14:05:53.032Z,68.91
2022-12-31T14:08:20.137Z,69.53
2022-12-31T14:11:31.400Z,69.77
2022-12-31T14:14:21.596Z,70.67
2022-12-31T14:17:45.818Z,71.27
2022-12-31T14:20:23.524Z,72.43
2022-12-31T14:23:32.836Z,72.76
2022-12-31T14:26:18.915Z,75.54
2022-12-31T14:29:02.540Z,75.54
2022-12-31T14:32:06.627Z,75.95
2022-12-31T14:35:04.854Z,76.61
2022-12-31T14:38:02.204Z,77.22
2022-12-31T14:41:01.762Z,77.90
2022-12-31T14:44:05.747Z,78.52
2022-12-31T14:47:06.662Z,79.09
2022-12-31T14:50:04.150Z,79.46
2022-12-31T14:52:34.248Z,80.24
2022-12-31T14:55:03.083Z,80.59
2022-12-31T14:58:16.704Z,81.72
2022-12-31T15:00:34.087Z,82.13
2022-12-31T15:03:04.264Z,82.91
2022-12-31T15:05:37.073Z,83.35
2022-12-31T15:08:19.243Z,83.53
2022-12-31T15:11:01.689Z,84.07
2022-12-31T15:13:53.145Z,84.71
2022-12-31T15:16:53.901Z,85.31
2022-12-31T15:19:32.816Z,86.57
2022-12-31T15:22:07.173Z,86.79
2022-12-31T15:24:34.148Z,87.46
2022-12-31T15:27:06.569Z,87.96
2022-12-31T15:29:44.417Z,88.24
2022-12-31T15:32:28.622Z,88.56
2022-12-31T15:35:30.424Z,88.88
2022-12-31T15:38:35.221Z,89.65
2022-12-31T15:41:36.460Z,90.42
2022-12-31T15:44:20.889Z,91.17
2022-12-31T15:46:55.436Z,91.48
2022-12-31T15:49:24.277Z,92.05
2022-12-31T15:52:04.070Z,92.48
2022-12-31T15:54:42.583Z,92.79
2022-12-31T15:57:19.307Z,93.39
2022-12-31T15:59:47.029Z,93.47
2022-12-31T16:02:43.166Z,93.25
2022-12-31T16:05:24.946Z,93.91
2022-12-31T16:07:56.572Z,94.41
2022-12-31T16:10:32.198Z,94.80
2022-12-31T16:13:00.277Z,95.11
2022-12-31T16:15:30.616Z,95.69
2022-12-31T16:18:06.453Z,96.17
2022-12-31T16:20:34.824Z,96.74
2022-12-31T16:23:03.822Z,97.01
2022-12-31T16:25:33.483Z,96.94
2022-12-31T16:28:03.186Z,96.89
2022-12-31T16:30:36.106Z,97.08
2022-12-31T16:33:06.893Z,97.14
2022-12-31T16:35:39.026Z,97.54
2022-12-31T16:38:17.307Z,97.72
2022-12-31T16:41:02.179Z,97.29
2022-12-31T16:43:39.722Z,97.77
2022-12-31T16:46:27.839Z,98.24
2022-12-31T16:49:00.733Z,99.51
2022-12-31T16:51:31.285Z,99.12
2022-12-31T16:54:02.437Z,99.17
2022-12-31T16:56:29.263Z,99.48
2022-12-31T16:59:23.993Z,99.47
2022-12-31T17:01:52.500Z,99.53
2022-12-31T17:04:21.113Z,100.00
2022-12-31T17:06:48.648Z,100.00
2022-12-31T17:09:23.431Z,100.00
2022-12-31T17:11:58.559Z,100.00
2022-12-31T17:14:28.526Z,100.00
2022-12-31T17:17:03.522Z,100.00
2022-12-31T17:19:36.682Z,100.00
2022-12-31T17:22:40.820Z,100.00
2022-12-31T17:25:25.053Z,100.00
2022-12-31T17:27:54.046Z,100.00
2022-12-31T17:30:23.055Z,100.00
2022-12-31T17:32:51.810Z,100.00
2022-12-31T17:35:27.899Z,100.00
2022-12-31T17:37:54.843Z,100.00
2022-12-31T17:40:51.637Z,100.00
2022-12-31T17:43:21.766Z,100.00
2022-12-31T17:45:52.013Z,100.00
2022-12-31T17:48:20.687Z,100.00
2022-12-31T17:50:52.571Z,100.00
2022-12-31T17:53:20.604Z,100.00
2022-12-31T17:55:49.981Z,100.00
2022-12-31T17:58:36.609Z,100.00
2022-12-31T18:01:08.335Z,100.00
2022-12-31T18:03:35.864Z,100.00
2022-12-31T18:06:03.096Z,100.00
2022-12-31T18:08:30.100Z,100.00
2022-12-31T18:10:57.136Z,100.00
2022-12-31T18:13:26.064Z,100.00
2022-12-31T18:15:53.784Z,100.00
2022-12-31T18:18:26.764Z,100.00
2022-12-31T18:20:59.312Z,100.00
2022-12-31T18:23:33.625Z,100.00
2022-12-31T18:26:00.653Z,100.00
2022-12-31T18:28:27.477Z,100.00
2022-12-31T18:30:54.544Z,100.00
2022-12-31T18:33:23.850Z,100.00
2022-12-31T18:36:08.707Z,100.00
2022-12-31T18:38:36.522Z,100.00
2022-12-31T18:41:04.493Z,100.00
2022-12-31T18:43:31.893Z,100.00
2022-12-31T18:45:59.830Z,100.00
2022-12-31T18:48:27.005Z,100.00
2022-12-31T18:50:54.049Z,100.00
2022-12-31T18:53:23.121Z,100.00
2022-12-31T18:55:59.196Z,100.00
2022-12-31T18:58:26.351Z,100.00
2022-12-31T19:00:53.414Z,100.00
2022-12-31T19:03:23.112Z,100.00
2022-12-31T19:05:53.151Z,100.00
2022-12-31T19:08:21.837Z,100.00
2022-12-31T19:10:50.618Z,100.00
2022-12-31T19:13:19.587Z,100.00
2022-12-31T19:15:52.792Z,100.00
2022-12-31T19:18:19.878Z,100.00
2022-12-31T19:20:47.384Z,100.00
2022-12-31T19:23:20.561Z,100.00
2022-12-31T19:25:49.163Z,100.00
2022-12-31T19:28:17.827Z,100.00
2022-12-31T19:30:45.211Z,100.00
2022-12-31T19:33:12.681Z,100.00
2022-12-31T19:35:40.085Z,100.00
2022-12-31T19:38:16.804Z,100.00
2022-12-31T19:40:43.936Z,100.00
2022-12-31T19:43:16.428Z,100.00
2022-12-31T19:45:44.760Z,100.00
2022-12-31T19:48:14.035Z,100.00
2022-12-31T19:50:50.041Z,100.00
2022-12-31T19:53:20.222Z,100.00
2022-12-31T19:55:48.271Z,100.00
2022-12-31T19:58:22.167Z,100.00
2022-12-31T20:00:55.574Z,100.00
2022-12-31T20:03:24.844Z,100.00
2022-12-31T20:05:51.703Z,100.00
2022-12-31T20:08:20.394Z,100.00
2022-12-31T20:10:47.411Z,100.00
2022-12-31T20:13:14.552Z,100.00
2022-12-31T20:15:47.909Z,100.00
2022-12-31T20:18:17.498Z,100.00
2022-12-31T20:20:55.521Z,100.00
2022-12-31T20:23:23.016Z,100.00
2022-12-31T20:26:00.588Z,100.00
2022-12-31T20:28:27.973Z,100.00
2022-12-31T20:30:55.297Z,100.00
2022-12-31T20:33:22.828Z,100.00
2022-12-31T20:35:50.105Z,100.00
2022-12-31T20:38:17.097Z,100.00
2022-12-31T20:40:46.872Z,100.00
2022-12-31T20:43:17.091Z,100.00
2022-12-31T20:45:45.000Z,100.00
2022-12-31T20:48:12.157Z,100.00
2022-12-31T20:50:39.164Z,100.00
2022-12-31T20:53:07.119Z,100.00
2022-12-31T20:55:37.573Z,100.00
2022-12-31T20:58:06.355Z,100.00
2022-12-31T21:00:33.156Z,100.00
2022-12-31T21:03:10.492Z,100.00
2022-12-31T21:05:53.964Z,100.00
2022-12-31T21:08:21.875Z,100.00
2022-12-31T21:10:49.148Z,100.00
2022-12-31T21:13:18.922Z,100.00
2022-12-31T21:15:55.534Z,100.00
2022-12-31T21:18:23.387Z,100.00
2022-12-31T21:20:52.014Z,100.00
2022-12-31T21:23:20.541Z,100.00
2022-12-31T21:25:50.362Z,100.00
2022-12-31T21:28:17.234Z,100.00
2022-12-31T21:30:44.328Z,100.00
2022-12-31T21:33:11.258Z,100.00
2022-12-31T21:35:45.852Z,100.00
2022-12-31T21:38:15.669Z,100.00
2022-12-31T21:40:44.901Z,100.00
2022-12-31T21:43:13.069Z,100.00
2022-12-31T21:45:41.797Z,100.00
2022-12-31T21:48:21.576Z,100.00
2022-12-31T21:50:50.696Z,100.00
2022-12-31T21:53:30.430Z,100.00
2022-12-31T21:56:09.848Z,100.00
2022-12-31T21:58:41.873Z,100.00
2022-12-31T22:01:35.526Z,100.00
2022-12-31T22:04:03.083Z,100.00
2022-12-31T22:06:31.067Z,100.00
2022-12-31T22:08:58.240Z,100.00
2022-12-31T22:11:27.789Z,100.00
2022-12-31T22:13:55.847Z,100.00
2022-12-31T22:16:23.555Z,100.00
2022-12-31T22:18:50.845Z,100.00
2022-12-31T22:21:20.800Z,100.00
2022-12-31T22:23:50.543Z,100.00
2022-12-31T22:26:20.462Z,100.00
2022-12-31T22:28:48.103Z,100.00
2022-12-31T22:31:24.630Z,100.00
2022-12-31T22:33:52.214Z,100.00
2022-12-31T22:36:21.631Z,100.00
2022-12-31T22:38:50.928Z,100.00
2022-12-31T22:41:20.743Z,100.00
2022-12-31T22:43:51.465Z,100.00
2022-12-31T22:46:24.757Z,100.00
2022-12-31T22:48:53.283Z,100.00
2022-12-31T22:51:20.820Z,100.00
2022-12-31T22:53:47.988Z,100.00
2022-12-31T22:56:20.116Z,100.00
2022-12-31T22:58:47.161Z,100.00
2022-12-31T23:01:23.130Z,100.00
2022-12-31T23:03:51.939Z,100.00
2022-12-31T23:06:28.989Z,100.00
2022-12-31T23:09:15.352Z,100.00
2022-12-31T23:11:43.757Z,100.00
2022-12-31T23:14:36.599Z,100.00
2022-12-31T23:17:30.039Z,100.00
2022-12-31T23:20:18.763Z,100.00
2022-12-31T23:23:05.551Z,100.00
2022-12-31T23:25:34.416Z,100.00
2022-12-31T23:28:01.428Z,100.00
2022-12-31T23:30:28.818Z,100.00
2022-12-31T23:32:56.362Z,100.00
2022-12-31T23:35:23.289Z,100.00
2022-12-31T23:37:50.303Z,100.00
2022-12-31T23:40:21.549Z,100.00
2022-12-31T23:42:49.992Z,100.00
2022-12-31T23:45:17.381Z,100.00
2022-12-31T23:47:44.218Z,100.00
2022-12-31T23:50:11.264Z,100.00
2022-12-31T23:52:38.398Z,100.00
2022-12-31T23:55:05.607Z,100.00
2022-12-31T23:57:32.545Z,100.00
